createdAt,value
2023-05-19T00:01:05.590Z,10.83
2023-05-19T00:04:09.136Z,10.84
2023-05-19T00:07:11.791Z,10.77
2023-05-19T00:10:15.682Z,10.73
2023-05-19T00:13:18.587Z,10.71
2023-05-19T00:16:22.586Z,10.65
2023-05-19T00:19:25.567Z,10.66
2023-05-19T00:22:28.489Z,10.69
2023-05-19T00:25:31.069Z,10.72
2023-05-19T00:28:33.921Z,10.74
2023-05-19T00:31:36.625Z,10.64
2023-05-19T00:34:39.637Z,10.77
2023-05-19T00:37:43.372Z,10.80
2023-05-19T00:40:46.540Z,10.80
2023-05-19T00:43:49.510Z,10.79
2023-05-19T00:46:52.429Z,10.78
2023-05-19T00:49:55.033Z,10.73
2023-05-19T00:52:58.057Z,10.72
2023-05-19T00:56:01.112Z,10.70
2023-05-19T00:59:04.865Z,10.60
2023-05-19T01:02:07.867Z,10.60
2023-05-19T01:05:11.251Z,10.57
2023-05-19T01:08:14.069Z,10.49
2023-05-19T01:11:17.199Z,10.60
2023-05-19T01:14:20.574Z,10.59
2023-05-19T01:17:49.651Z,10.58
2023-05-19T01:21:03.747Z,10.57
2023-05-19T01:24:34.622Z,10.57
2023-05-19T01:27:37.096Z,10.61
2023-05-19T01:30:43.566Z,10.52
2023-05-19T01:33:46.737Z,10.50
2023-05-19T01:36:50.953Z,10.50
2023-05-19T01:39:55.730Z,10.48
2023-05-19T01:43:00.488Z,10.48
2023-05-19T01:46:03.281Z,10.51
2023-05-19T01:49:06.733Z,10.51
2023-05-19T01:52:09.387Z,10.53
2023-05-19T01:55:12.585Z,10.45
2023-05-19T01:58:28.824Z,10.40
2023-05-19T02:01:39.171Z,8.77
2023-05-19T02:04:51.769Z,10.57
2023-05-19T02:07:59.740Z,10.57
2023-05-19T02:11:15.052Z,10.54
2023-05-19T02:14:27.910Z,10.54
2023-05-19T02:17:33.286Z,10.55
2023-05-19T02:20:35.938Z,10.57
2023-05-19T02:23:41.012Z,10.53
2023-05-19T02:26:44.051Z,10.45
2023-05-19T02:29:46.891Z,10.58
2023-05-19T02:32:49.439Z,10.58
2023-05-19T02:35:52.338Z,10.59
2023-05-19T02:38:54.952Z,10.59
2023-05-19T02:41:57.761Z,10.59
2023-05-19T02:45:00.630Z,10.58
2023-05-19T02:48:03.729Z,10.56
2023-05-19T02:51:06.349Z,10.59
2023-05-19T02:54:09.198Z,10.60
2023-05-19T02:57:11.847Z,10.58
2023-05-19T03:00:15.235Z,10.56
2023-05-19T03:03:18.269Z,10.54
2023-05-19T03:06:23.423Z,10.53
2023-05-19T03:09:25.936Z,10.52
2023-05-19T03:12:28.805Z,10.53
2023-05-19T03:15:31.535Z,10.56
2023-05-19T03:18:35.185Z,10.59
2023-05-19T03:21:37.975Z,10.59
2023-05-19T03:24:40.933Z,10.56
2023-05-19T03:27:43.724Z,10.57
2023-05-19T03:30:50.055Z,10.54
2023-05-19T03:33:52.865Z,10.52
2023-05-19T03:36:57.360Z,10.50
2023-05-19T03:40:00.190Z,10.50
2023-05-19T03:43:03.231Z,10.54
2023-05-19T03:46:06.109Z,10.59
2023-05-19T03:49:11.855Z,10.65
2023-05-19T03:52:15.798Z,10.67
2023-05-19T03:55:21.455Z,10.73
2023-05-19T03:58:24.215Z,10.70
2023-05-19T04:01:29.468Z,10.81
2023-05-19T04:04:33.721Z,10.86
2023-05-19T04:07:36.601Z,10.92
2023-05-19T04:10:39.517Z,10.98
2023-05-19T04:13:42.107Z,11.04
2023-05-19T04:16:44.962Z,11.12
2023-05-19T04:19:47.460Z,11.19
2023-05-19T04:22:50.300Z,11.25
2023-05-19T04:25:54.266Z,11.25
2023-05-19T04:28:57.226Z,11.32
2023-05-19T04:32:01.186Z,11.28
2023-05-19T04:35:04.816Z,11.46
2023-05-19T04:38:07.923Z,11.49
2023-05-19T04:41:12.146Z,11.49
2023-05-19T04:44:18.496Z,11.53
2023-05-19T04:47:22.412Z,11.57
2023-05-19T04:50:25.419Z,11.63
2023-05-19T04:53:31.419Z,11.69
2023-05-19T04:56:34.257Z,11.73
2023-05-19T04:59:37.263Z,11.85
2023-05-19T05:02:42.999Z,12.44
2023-05-19T05:05:46.275Z,12.59
2023-05-19T05:08:49.501Z,12.74
2023-05-19T05:11:53.538Z,12.74
2023-05-19T05:14:56.457Z,12.73
2023-05-19T05:17:59.574Z,12.85
2023-05-19T05:21:02.948Z,12.88
2023-05-19T05:24:06.393Z,12.73
2023-05-19T05:27:10.198Z,12.55
2023-05-19T05:30:13.470Z,12.46
2023-05-19T05:33:17.386Z,12.38
2023-05-19T05:36:20.975Z,12.39
2023-05-19T05:39:23.689Z,12.38
2023-05-19T05:42:28.927Z,12.40
2023-05-19T05:45:32.798Z,12.47
2023-05-19T05:48:36.416Z,12.38
2023-05-19T05:51:40.746Z,12.58
2023-05-19T05:54:46.346Z,12.60
2023-05-19T05:57:50.514Z,12.65
2023-05-19T06:00:57.145Z,12.70
2023-05-19T06:04:00.989Z,12.76
2023-05-19T06:07:03.810Z,12.89
2023-05-19T06:10:08.762Z,12.97
2023-05-19T06:13:11.861Z,13.03
2023-05-19T06:16:14.903Z,13.11
2023-05-19T06:19:19.815Z,13.20
2023-05-19T06:22:23.114Z,13.27
2023-05-19T06:25:25.879Z,13.37
2023-05-19T06:28:28.850Z,13.48
2023-05-19T06:31:33.445Z,13.60
2023-05-19T06:34:40.514Z,13.70
2023-05-19T06:37:43.374Z,13.86
2023-05-19T06:40:46.602Z,13.90
2023-05-19T06:43:49.654Z,13.95
2023-05-19T06:46:55.208Z,13.95
2023-05-19T06:49:57.979Z,14.10
2023-05-19T06:53:01.844Z,14.25
2023-05-19T06:56:05.330Z,14.36
2023-05-19T06:59:08.629Z,14.40
2023-05-19T07:02:11.471Z,14.62
2023-05-19T07:05:14.653Z,14.80
2023-05-19T07:08:20.149Z,14.95
2023-05-19T07:11:23.091Z,15.12
2023-05-19T07:14:25.717Z,15.29
2023-05-19T07:17:28.674Z,15.49
2023-05-19T07:20:31.558Z,15.67
2023-05-19T07:23:34.525Z,15.66
2023-05-19T07:26:37.210Z,15.68
2023-05-19T07:29:40.116Z,15.72
2023-05-19T07:32:42.651Z,15.94
2023-05-19T07:35:46.308Z,16.08
2023-05-19T07:38:49.011Z,16.04
2023-05-19T07:41:55.663Z,16.42
2023-05-19T07:44:58.308Z,16.95
2023-05-19T07:48:01.252Z,17.10
2023-05-19T07:51:04.176Z,17.24
2023-05-19T07:54:08.334Z,17.14
2023-05-19T07:57:10.849Z,16.82
2023-05-19T08:00:14.268Z,16.86
2023-05-19T08:03:18.397Z,16.78
2023-05-19T08:06:21.273Z,16.75
2023-05-19T08:09:24.107Z,17.03
2023-05-19T08:12:26.696Z,17.36
2023-05-19T08:15:29.796Z,17.74
2023-05-19T08:18:32.527Z,17.43
2023-05-19T08:21:35.643Z,17.35
2023-05-19T08:24:39.331Z,17.17
2023-05-19T08:27:42.136Z,17.04
2023-05-19T08:30:44.852Z,16.98
2023-05-19T08:33:47.763Z,16.89
2023-05-19T08:36:50.474Z,16.86
2023-05-19T08:39:53.245Z,17.30
2023-05-19T08:42:55.790Z,17.35
2023-05-19T08:45:59.941Z,17.86
2023-05-19T08:49:12.230Z,17.97
2023-05-19T08:56:15.438Z,17.90
2023-05-19T08:59:19.708Z,17.96
2023-05-19T09:02:22.822Z,17.86
2023-05-19T09:05:25.768Z,17.78
2023-05-19T09:08:28.594Z,17.72
2023-05-19T09:11:31.498Z,17.75
2023-05-19T09:14:34.766Z,17.88
2023-05-19T09:17:37.736Z,18.68
2023-05-19T09:20:41.597Z,19.22
2023-05-19T09:23:47.125Z,19.02
2023-05-19T09:26:49.753Z,19.26
2023-05-19T09:29:52.617Z,19.68
2023-05-19T09:32:55.420Z,19.47
2023-05-19T09:35:58.542Z,19.09
2023-05-19T09:39:01.038Z,18.88
2023-05-19T09:42:04.899Z,18.80
2023-05-19T09:45:11.603Z,18.63
2023-05-19T09:48:16.138Z,18.63
2023-05-19T09:51:18.694Z,18.69
2023-05-19T09:54:23.735Z,19.23
2023-05-19T09:57:29.486Z,19.75
2023-05-19T10:00:32.851Z,19.73
2023-05-19T10:03:36.766Z,19.80
2023-05-19T10:06:39.674Z,20.09
2023-05-19T10:09:42.788Z,20.67
2023-05-19T10:12:45.595Z,20.23
2023-05-19T10:15:58.380Z,19.73
2023-05-19T10:19:02.671Z,19.59
2023-05-19T10:22:05.615Z,19.59
2023-05-19T10:25:09.128Z,20.12
2023-05-19T10:28:15.090Z,20.83
2023-05-19T10:31:19.725Z,21.51
2023-05-19T10:35:00.997Z,22.38
2023-05-19T10:38:29.248Z,22.42
2023-05-19T10:41:47.212Z,21.83
2023-05-19T10:45:18.014Z,22.56
2023-05-19T10:48:22.136Z,22.71
2023-05-19T10:51:32.269Z,23.20
2023-05-19T10:54:43.532Z,23.48
2023-05-19T10:57:58.838Z,23.61
2023-05-19T11:01:01.741Z,22.65
2023-05-19T11:04:10.688Z,22.44
2023-05-19T11:07:21.764Z,22.37
2023-05-19T11:10:24.640Z,22.64
2023-05-19T11:13:28.407Z,22.01
2023-05-19T11:16:34.854Z,21.71
2023-05-19T11:19:37.824Z,22.74
2023-05-19T11:22:40.474Z,23.00
2023-05-19T11:25:47.192Z,22.42
2023-05-19T11:28:49.782Z,21.76
2023-05-19T11:31:52.579Z,22.14
2023-05-19T11:34:55.953Z,22.88
2023-05-19T11:37:59.357Z,23.71
2023-05-19T11:41:01.927Z,24.02
2023-05-19T11:44:09.967Z,24.28
2023-05-19T11:47:14.111Z,23.56
2023-05-19T11:50:17.098Z,22.84
2023-05-19T11:53:20.178Z,22.39
2023-05-19T11:56:23.352Z,22.68
2023-05-19T11:59:36.430Z,23.33
2023-05-19T12:02:39.452Z,23.68
2023-05-19T12:05:48.804Z,23.90
2023-05-19T12:08:52.703Z,24.34
2023-05-19T12:11:55.681Z,24.29
2023-05-19T12:14:58.272Z,23.96
2023-05-19T12:18:02.168Z,24.05
2023-05-19T12:21:05.273Z,24.52
2023-05-19T12:24:08.843Z,25.01
2023-05-19T12:27:23.842Z,25.12
2023-05-19T12:30:32.418Z,24.89
2023-05-19T12:33:35.931Z,24.98
2023-05-19T12:36:38.971Z,24.12
2023-05-19T12:39:42.623Z,24.23
2023-05-19T12:42:45.691Z,24.59
2023-05-19T12:45:48.880Z,25.20
2023-05-19T12:48:51.766Z,24.82
2023-05-19T12:51:54.309Z,24.97
2023-05-19T12:55:06.596Z,24.53
2023-05-19T12:58:11.550Z,23.89
2023-05-19T13:01:18.680Z,23.90
2023-05-19T13:04:21.393Z,24.14
2023-05-19T13:07:24.362Z,24.07
2023-05-19T13:10:27.735Z,24.08
2023-05-19T13:13:30.650Z,24.28
2023-05-19T13:16:33.243Z,24.42
2023-05-19T13:19:36.168Z,24.84
2023-05-19T13:22:38.747Z,24.43
2023-05-19T13:25:42.125Z,24.17
2023-05-19T13:28:44.890Z,24.21
2023-05-19T13:31:47.776Z,24.62
2023-05-19T13:34:50.488Z,24.49
2023-05-19T13:37:53.681Z,24.81
2023-05-19T13:40:56.286Z,24.87
2023-05-19T13:43:59.741Z,25.18
2023-05-19T13:47:02.452Z,25.13
2023-05-19T13:50:05.882Z,24.92
2023-05-19T13:53:08.693Z,24.62
2023-05-19T13:56:11.705Z,24.69
2023-05-19T13:59:14.621Z,24.74
2023-05-19T14:02:17.485Z,24.99
2023-05-19T14:05:20.370Z,24.98
2023-05-19T14:08:22.868Z,25.11
2023-05-19T14:11:26.242Z,24.95
2023-05-19T14:14:28.734Z,24.36
2023-05-19T14:17:32.628Z,24.41
2023-05-19T14:20:36.145Z,24.28
2023-05-19T14:23:39.309Z,24.11
2023-05-19T14:26:42.029Z,23.88
2023-05-19T14:29:44.969Z,23.82
2023-05-19T14:32:47.621Z,23.68
2023-05-19T14:35:50.572Z,23.51
2023-05-19T14:38:53.336Z,23.94
2023-05-19T14:41:56.495Z,23.86
2023-05-19T14:44:59.098Z,23.53
2023-05-19T14:48:02.259Z,23.42
2023-05-19T14:51:05.082Z,23.35
2023-05-19T14:54:08.312Z,23.23
2023-05-19T14:57:11.321Z,23.06
2023-05-19T15:00:14.484Z,22.91
2023-05-19T15:03:17.241Z,22.61
2023-05-19T15:06:20.191Z,22.38
2023-05-19T15:09:22.763Z,22.15
2023-05-19T15:12:25.646Z,22.14
2023-05-19T15:15:28.337Z,22.07
2023-05-19T15:18:31.318Z,21.97
2023-05-19T15:21:33.919Z,21.99
2023-05-19T15:24:36.760Z,21.90
2023-05-19T15:27:39.350Z,21.89
2023-05-19T15:30:43.261Z,21.86
2023-05-19T15:33:46.113Z,21.68
2023-05-19T15:36:48.977Z,21.44
2023-05-19T15:39:51.776Z,21.38
2023-05-19T15:42:54.667Z,21.35
2023-05-19T15:45:57.226Z,21.20
2023-05-19T15:49:00.233Z,21.15
2023-05-19T15:52:03.861Z,21.10
2023-05-19T15:55:07.692Z,21.09
2023-05-19T15:58:10.396Z,21.09
2023-05-19T16:01:13.899Z,21.07
2023-05-19T16:04:17.892Z,21.00
2023-05-19T16:07:22.556Z,20.95
2023-05-19T16:10:25.512Z,20.85
2023-05-19T16:13:28.368Z,20.85
2023-05-19T16:16:31.183Z,20.76
2023-05-19T16:19:33.991Z,20.72
2023-05-19T16:22:36.981Z,20.67
2023-05-19T16:25:39.545Z,20.59
2023-05-19T16:28:42.356Z,20.51
2023-05-19T16:31:44.973Z,20.44
2023-05-19T16:34:47.940Z,20.36
2023-05-19T16:37:50.589Z,20.37
2023-05-19T16:40:53.428Z,20.33
2023-05-19T16:43:56.041Z,20.25
2023-05-19T16:46:58.922Z,20.18
2023-05-19T16:50:01.406Z,20.11
2023-05-19T16:53:04.218Z,20.05
2023-05-19T16:56:08.062Z,19.98
2023-05-19T16:59:10.892Z,19.92
2023-05-19T17:02:14.164Z,19.86
2023-05-19T17:05:16.986Z,19.80
2023-05-19T17:08:19.865Z,19.73
2023-05-19T17:11:22.819Z,19.68
2023-05-19T17:14:25.529Z,19.63
2023-05-19T17:17:28.530Z,19.52
2023-05-19T17:20:31.537Z,19.48
2023-05-19T17:23:34.720Z,19.35
2023-05-19T17:26:37.296Z,19.38
2023-05-19T17:29:40.307Z,19.24
2023-05-19T17:32:43.044Z,19.07
2023-05-19T17:35:46.010Z,19.03
2023-05-19T17:38:48.643Z,18.87
2023-05-19T17:41:51.548Z,18.82
2023-05-19T17:44:54.150Z,18.76
2023-05-19T17:47:57.021Z,18.72
2023-05-19T17:50:59.859Z,18.67
2023-05-19T17:54:02.955Z,18.62
2023-05-19T17:57:08.231Z,18.57
2023-05-19T18:00:11.790Z,18.50
2023-05-19T18:03:15.059Z,18.43
2023-05-19T18:06:18.601Z,18.35
2023-05-19T18:09:23.415Z,18.26
2023-05-19T18:12:26.293Z,18.14
2023-05-19T18:15:29.139Z,18.03
2023-05-19T18:18:33.699Z,17.92
2023-05-19T18:21:36.670Z,17.81
2023-05-19T18:24:39.376Z,17.82
2023-05-19T18:27:43.734Z,17.79
2023-05-19T18:30:46.336Z,17.73
2023-05-19T18:33:49.288Z,17.70
2023-05-19T18:36:51.915Z,17.68
2023-05-19T18:39:55.040Z,17.65
2023-05-19T18:42:57.714Z,17.59
2023-05-19T18:46:00.641Z,17.49
2023-05-19T18:49:03.827Z,17.47
2023-05-19T18:52:06.904Z,17.45
2023-05-19T18:55:10.151Z,17.42
2023-05-19T18:58:14.197Z,17.42
2023-05-19T19:01:16.891Z,17.25
2023-05-19T19:04:20.277Z,17.28
2023-05-19T19:07:25.293Z,17.20
2023-05-19T19:10:28.638Z,17.10
2023-05-19T19:13:33.663Z,17.10
2023-05-19T19:16:39.362Z,17.02
2023-05-19T19:19:42.185Z,16.96
2023-05-19T19:22:45.511Z,16.82
2023-05-19T19:25:48.144Z,16.86
2023-05-19T19:28:51.269Z,16.90
2023-05-19T19:31:54.133Z,16.82
2023-05-19T19:34:57.098Z,16.78
2023-05-19T19:37:59.873Z,16.75
2023-05-19T19:41:03.072Z,16.69
2023-05-19T19:44:05.854Z,16.64
2023-05-19T19:47:08.751Z,16.62
2023-05-19T19:50:11.560Z,16.45
2023-05-19T19:53:15.591Z,16.54
2023-05-19T19:56:18.290Z,16.54
2023-05-19T19:59:21.274Z,16.54
2023-05-19T20:02:24.054Z,16.54
2023-05-19T20:05:27.025Z,16.55
2023-05-19T20:08:29.670Z,16.52
2023-05-19T20:11:32.583Z,16.46
2023-05-19T20:14:35.313Z,16.55
2023-05-19T20:17:38.405Z,16.55
2023-05-19T20:20:41.547Z,16.57
2023-05-19T20:23:44.576Z,16.57
2023-05-19T20:26:47.475Z,16.58
2023-05-19T20:29:50.681Z,16.59
2023-05-19T20:32:53.297Z,16.57
2023-05-19T20:35:59.798Z,16.57
2023-05-19T20:39:02.834Z,16.55
2023-05-19T20:42:07.779Z,16.53
2023-05-19T20:45:10.601Z,16.50
2023-05-19T20:48:13.627Z,16.48
2023-05-19T20:51:16.320Z,16.49
2023-05-19T20:54:20.229Z,16.49
2023-05-19T20:57:23.122Z,16.44
2023-05-19T21:00:27.445Z,16.45
2023-05-19T21:03:32.214Z,16.44
2023-05-19T21:06:35.196Z,16.45
2023-05-19T21:09:37.860Z,16.44
2023-05-19T21:12:40.946Z,16.43
2023-05-19T21:15:43.507Z,16.46
2023-05-19T21:18:46.427Z,16.45
2023-05-19T21:21:49.653Z,16.43
2023-05-19T21:24:53.174Z,16.43
2023-05-19T21:27:56.125Z,16.41
2023-05-19T21:30:59.183Z,16.30
2023-05-19T21:34:02.505Z,16.25
2023-05-19T21:37:05.689Z,16.26
2023-05-19T21:40:08.896Z,16.21
2023-05-19T21:43:12.677Z,16.17
2023-05-19T21:46:15.200Z,16.15
2023-05-19T21:49:23.158Z,16.08
2023-05-19T21:52:25.704Z,15.90
2023-05-19T21:55:28.536Z,15.89
2023-05-19T21:58:31.093Z,15.81
2023-05-19T22:01:34.013Z,15.74
2023-05-19T22:04:38.566Z,15.69
2023-05-19T22:07:41.729Z,15.63
2023-05-19T22:10:44.830Z,15.46
2023-05-19T22:13:47.372Z,15.51
2023-05-19T22:16:50.438Z,15.48
2023-05-19T22:19:53.113Z,15.47
2023-05-19T22:22:57.420Z,15.48
2023-05-19T22:26:00.054Z,15.55
2023-05-19T22:29:03.471Z,15.55
2023-05-19T22:32:07.698Z,15.40
2023-05-19T22:35:12.411Z,15.51
2023-05-19T22:38:14.998Z,15.48
2023-05-19T22:41:17.895Z,15.47
2023-05-19T22:44:20.600Z,15.45
2023-05-19T22:47:23.711Z,15.35
2023-05-19T22:50:26.364Z,15.49
2023-05-19T22:53:29.192Z,15.48
2023-05-19T22:56:31.715Z,15.47
2023-05-19T22:59:35.529Z,15.38
2023-05-19T23:02:38.215Z,15.31
2023-05-19T23:05:41.436Z,15.26
2023-05-19T23:08:46.703Z,15.25
2023-05-19T23:11:50.136Z,15.19
2023-05-19T23:14:52.954Z,15.10
2023-05-19T23:17:55.907Z,15.06
2023-05-19T23:20:58.540Z,15.02
2023-05-19T23:24:01.551Z,14.98
2023-05-19T23:27:04.296Z,14.95
2023-05-19T23:30:07.877Z,14.94
2023-05-19T23:33:10.442Z,14.89
2023-05-19T23:36:13.693Z,14.84
2023-05-19T23:39:16.211Z,14.73
2023-05-19T23:42:18.999Z,14.84
2023-05-19T23:45:21.643Z,14.88
2023-05-19T23:48:24.552Z,14.88
2023-05-19T23:51:27.406Z,14.90
2023-05-19T23:54:30.608Z,14.89
2023-05-19T23:57:33.244Z,14.87
